Time;durP1;ratioP1;P1;durP2;ratioP2;P2;SDS_P1;SDS_P2;PMS_P1;PMS_P2;Temp;Humidity;BMP_temperature;BMP_pressure;BME280_temperature;BME280_humidity;BME280_pressure;Samples;Min_cycle;Max_cycle;Signal;HPM_P1;HPM_P2
2023/12/24 00:00:17;;;;;;;4.20;1.87;;;;;;;9.53;100.00;100856.91;5130554;27;20537;-36
2023/12/24 00:02:42;;;;;;;5.07;1.53;;;;;;;9.50;100.00;100832.25;5130734;28;20261;-36
2023/12/24 00:05:08;;;;;;;3.17;1.30;;;;;;;9.59;100.00;100860.59;5130412;27;20034;-36
2023/12/24 00:07:33;;;;;;;4.23;2.00;;;;;;;9.58;100.00;100853.56;5122675;28;20187;-36
2023/12/24 00:09:58;;;;;;;2.80;1.37;;;;;;;9.59;100.00;100843.56;5116892;28;20276;-36
2023/12/24 00:12:23;;;;;;;7.57;2.20;;;;;;;9.52;100.00;100841.78;5116706;28;20423;-36
2023/12/24 00:14:50;;;;;;;4.10;1.60;;;;;;;9.61;100.00;100865.75;5116830;28;20491;-36
2023/12/24 00:17:15;;;;;;;7.35;2.28;;;;;;;9.45;100.00;100838.31;5116507;28;20628;-36
2023/12/24 00:19:41;;;;;;;4.97;2.00;;;;;;;9.60;100.00;100869.53;5116970;28;20128;-36
2023/12/24 00:22:06;;;;;;;6.10;2.40;;;;;;;9.46;100.00;100842.66;5116796;28;20076;-36
2023/12/24 00:24:32;;;;;;;9.23;2.70;;;;;;;9.59;100.00;100863.28;5116947;28;20104;-36
2023/12/24 00:26:57;;;;;;;5.60;2.30;;;;;;;9.60;100.00;100856.84;5116941;28;20028;-36
2023/12/24 00:29:23;;;;;;;5.70;2.43;;;;;;;9.64;100.00;100851.81;5116596;28;20547;-36
2023/12/24 00:31:48;;;;;;;5.63;2.00;;;;;;;9.62;100.00;100852.06;5116617;28;20024;-36
2023/12/24 00:34:13;;;;;;;4.87;1.80;;;;;;;9.61;100.00;100833.38;5117056;28;20035;-36
2023/12/24 00:36:39;;;;;;;3.90;1.70;;;;;;;9.62;100.00;100826.94;5117031;28;20031;-37
2023/12/24 00:39:04;;;;;;;5.40;2.43;;;;;;;9.61;100.00;100820.69;5116658;28;20024;-36
2023/12/24 00:41:32;;;;;;;2.72;1.40;;;;;;;9.62;100.00;100821.53;5117154;28;20444;-36
2023/12/24 00:43:58;;;;;;;3.97;1.20;;;;;;;9.64;100.00;100805.94;5116759;28;20107;-36
2023/12/24 00:46:23;;;;;;;2.93;1.13;;;;;;;9.64;100.00;100800.53;5116263;28;20110;-36
2023/12/24 00:48:49;;;;;;;4.00;1.37;;;;;;;9.63;100.00;100778.09;5116649;28;20024;-36
2023/12/24 00:51:15;;;;;;;5.80;1.40;;;;;;;9.54;100.00;100764.09;5116373;28;20022;-36
2023/12/24 00:53:40;;;;;;;3.73;1.50;;;;;;;9.60;100.00;100767.75;5116079;28;20019;-36
2023/12/24 00:56:06;;;;;;;4.13;1.13;;;;;;;9.55;100.00;100746.81;5116517;28;20297;-36
2023/12/24 00:58:31;;;;;;;3.17;1.08;;;;;;;9.48;100.00;100721.81;5116345;28;20058;-36
2023/12/24 01:00:57;;;;;;;2.33;1.08;;;;;;;9.52;100.00;100714.91;5116229;28;20127;-36
2023/12/24 01:03:22;;;;;;;4.15;1.05;;;;;;;9.56;100.00;100712.56;5115575;28;20563;-36
2023/12/24 01:05:47;;;;;;;3.40;1.10;;;;;;;9.52;100.00;100709.50;5116390;28;20035;-36
2023/12/24 01:08:13;;;;;;;4.50;1.40;;;;;;;9.47;100.00;100700.44;5115880;28;20387;-36
2023/12/24 01:10:39;;;;;;;3.25;0.85;;;;;;;9.55;100.00;100716.31;5116031;28;20436;-36
2023/12/24 01:13:04;;;;;;;4.70;1.02;;;;;;;9.47;100.00;100706.66;5115953;28;20019;-36
2023/12/24 01:15:30;;;;;;;3.77;1.30;;;;;;;9.53;100.00;100721.13;5116160;28;20081;-36
2023/12/24 01:17:56;;;;;;;4.50;1.10;;;;;;;9.54;100.00;100711.97;5116016;28;20023;-37
2023/12/24 01:20:21;;;;;;;5.93;1.40;;;;;;;9.50;100.00;100708.91;5115227;28;20261;-36
2023/12/24 01:22:47;;;;;;;5.15;1.65;;;;;;;9.58;100.00;100712.34;5115214;28;20490;-36
2023/12/24 01:25:13;;;;;;;4.43;1.10;;;;;;;9.53;100.00;100697.66;5115697;28;20031;-36
2023/12/24 01:27:38;;;;;;;8.25;1.80;;;;;;;9.53;100.00;100724.66;5115421;28;20156;-36
2023/12/24 01:30:04;;;;;;;4.27;1.10;;;;;;;9.58;100.00;100720.44;5116170;28;20119;-36
2023/12/24 01:32:30;;;;;;;4.07;1.33;;;;;;;9.57;100.00;100716.94;5115869;28;20272;-36
2023/12/24 01:34:56;;;;;;;4.07;1.30;;;;;;;9.58;100.00;100715.88;5115183;28;20459;-37
2023/12/24 01:37:21;;;;;;;3.47;1.30;;;;;;;9.51;100.00;100705.13;5115572;28;20381;-36
2023/12/24 01:39:46;;;;;;;5.53;1.60;;;;;;;9.58;100.00;100715.06;5115202;28;20035;-36
2023/12/24 01:42:11;;;;;;;5.83;1.40;;;;;;;9.57;100.00;100722.31;5115790;28;20019;-36
2023/12/24 01:44:37;;;;;;;5.83;1.93;;;;;;;9.51;100.00;100713.22;5115101;28;20456;-36
2023/12/24 01:47:02;;;;;;;4.63;1.70;;;;;;;9.48;100.00;100702.09;5115357;28;20430;-36
2023/12/24 01:49:28;;;;;;;5.47;1.90;;;;;;;9.50;100.00;100710.78;5114770;28;20498;-36
2023/12/24 01:51:55;;;;;;;5.60;1.60;;;;;;;9.41;100.00;100702.16;5115560;28;20433;-36
2023/12/24 01:54:21;;;;;;;6.15;1.50;;;;;;;9.45;100.00;100724.13;5114940;28;20030;-36
2023/12/24 01:56:47;;;;;;;5.85;2.13;;;;;;;9.24;100.00;100695.75;5114647;28;20052;-36
2023/12/24 01:59:13;;;;;;;;;;;;;;;9.44;100.00;100739.50;5115249;28;20027;-36
2023/12/24 02:01:38;;;;;;;5.88;2.17;;;;;;;9.38;100.00;100728.78;5115641;28;20271;-36
2023/12/24 02:04:04;;;;;;;4.30;1.85;;;;;;;9.28;100.00;100710.44;5114770;28;20024;-36
2023/12/24 02:06:31;;;;;;;;;;;;;;;9.37;100.00;100724.41;5115734;28;20027;-36
2023/12/24 02:08:56;;;;;;;6.78;1.95;;;;;;;9.32;100.00;100721.56;5114397;28;19912;-36
2023/12/24 02:11:22;;;;;;;5.77;1.83;;;;;;;9.26;100.00;100707.13;5115211;28;20031;-36
2023/12/24 02:13:48;;;;;;;5.77;2.40;;;;;;;9.29;100.00;100715.59;5114487;28;20265;-36
2023/12/24 02:16:19;;;;;;;7.72;2.60;;;;;;;9.28;100.00;100718.53;5115299;28;20024;-36
2023/12/24 02:18:44;;;;;;;6.82;2.25;;;;;;;9.27;100.00;100706.06;5114471;28;20114;-36
2023/12/24 02:21:10;;;;;;;7.35;2.85;;;;;;;9.27;100.00;100703.38;5114723;28;20107;-36
2023/12/24 02:23:35;;;;;;;7.33;2.83;;;;;;;9.14;100.00;100677.38;5114455;28;20456;-36
2023/12/24 02:26:11;;;;;;;6.43;2.80;;;;;;;9.22;100.00;100700.50;5114690;28;20487;-36
2023/12/24 02:28:42;;;;;;;10.50;3.03;;;;;;;9.21;100.00;100685.38;5114621;28;20027;-36
2023/12/24 02:31:11;;;;;;;9.98;3.42;;;;;;;9.23;100.00;100712.97;5114122;28;20032;-36
2023/12/24 02:33:40;;;;;;;6.03;2.80;;;;;;;9.19;100.00;100687.50;5114191;28;20027;-36
2023/12/24 02:36:08;;;;;;;6.82;3.17;;;;;;;9.10;100.00;100664.56;5113838;28;20032;-36
2023/12/24 02:38:34;;;;;;;6.93;3.30;;;;;;;9.09;100.00;100657.53;5113785;27;20032;-36
2023/12/24 02:40:59;;;;;;;8.70;3.07;;;;;;;9.13;100.00;100669.53;5113824;28;20027;-36
2023/12/24 02:43:24;;;;;;;5.97;2.83;;;;;;;9.11;100.00;100655.41;5113796;28;20273;-36
2023/12/24 02:45:50;;;;;;;10.20;3.27;;;;;;;9.10;100.00;100651.06;5114119;28;20031;-36
2023/12/24 02:48:15;;;;;;;7.65;3.08;;;;;;;9.06;100.00;100647.19;5113930;28;20028;-36
2023/12/24 02:50:41;;;;;;;8.03;3.53;;;;;;;9.04;100.00;100650.13;5114044;28;20042;-36
2023/12/24 02:53:06;;;;;;;5.40;3.13;;;;;;;9.03;100.00;100643.91;5114073;28;20027;-36
2023/12/24 02:55:31;;;;;;;11.43;3.97;;;;;;;8.94;100.00;100639.84;5113973;28;20305;-36
2023/12/24 02:57:56;;;;;;;7.70;2.63;;;;;;;9.01;100.00;100654.06;5113966;28;20031;-36
2023/12/24 03:00:22;;;;;;;4.70;2.60;;;;;;;8.95;100.00;100646.88;5114488;28;20024;-36
2023/12/24 03:02:48;;;;;;;4.47;3.20;;;;;;;9.02;100.00;100657.59;5114799;28;20027;-36
2023/12/24 03:05:13;;;;;;;8.18;3.97;;;;;;;9.01;100.00;100653.25;5114395;28;20040;-36
2023/12/24 03:07:38;;;;;;;7.70;3.57;;;;;;;8.99;100.00;100637.31;5114415;28;20051;-36
2023/12/24 03:10:04;;;;;;;6.03;2.90;;;;;;;8.93;100.00;100630.13;5114181;28;20034;-36
2023/12/24 03:12:29;;;;;;;5.35;3.10;;;;;;;8.96;100.00;100635.03;5114474;28;20028;-36
2023/12/24 03:14:55;;;;;;;5.07;3.10;;;;;;;8.98;100.00;100627.56;5112505;28;20032;-36
2023/12/24 03:17:20;;;;;;;4.95;2.95;;;;;;;8.99;100.00;100621.13;5114430;28;20020;-36
2023/12/24 03:19:46;;;;;;;3.80;3.00;;;;;;;8.95;100.00;100609.13;5113828;28;20085;-36
2023/12/24 03:22:11;;;;;;;5.38;3.25;;;;;;;8.98;100.00;100607.88;5114373;28;20253;-36
2023/12/24 03:24:37;;;;;;;4.83;2.90;;;;;;;8.97;100.00;100598.94;5113772;28;20399;-36
2023/12/24 03:27:02;;;;;;;4.57;2.70;;;;;;;8.97;100.00;100596.22;5114021;28;20088;-36
2023/12/24 03:29:28;;;;;;;4.25;2.97;;;;;;;8.88;100.00;100585.97;5113975;28;20024;-36
2023/12/24 03:31:53;;;;;;;5.00;2.70;;;;;;;8.96;100.00;100578.41;5113440;28;20429;-36
2023/12/24 03:34:18;;;;;;;3.30;2.50;;;;;;;8.99;100.00;100596.03;5113721;28;20024;-36
2023/12/24 03:36:44;;;;;;;2.47;1.90;;;;;;;8.93;100.00;100580.72;5113643;28;20375;-36
2023/12/24 03:39:09;;;;;;;3.07;2.00;;;;;;;8.94;100.00;100585.09;5113591;28;20383;-36
2023/12/24 03:41:35;;;;;;;2.92;1.70;;;;;;;9.00;100.00;100585.00;5113578;28;20020;-36
2023/12/24 03:44:01;;;;;;;4.28;1.73;;;;;;;9.01;100.00;100575.84;5118157;28;20046;-37
2023/12/24 03:46:27;;;;;;;2.55;1.58;;;;;;;9.02;100.00;100576.66;5118216;28;20080;-37
2023/12/24 03:48:52;;;;;;;3.97;1.52;;;;;;;9.04;100.00;100569.19;5117432;28;20027;-37
2023/12/24 03:51:18;;;;;;;3.57;1.40;;;;;;;9.05;100.00;100564.63;5117617;28;20072;-37
2023/12/24 03:53:43;;;;;;;2.90;1.52;;;;;;;9.06;100.00;100563.56;5117291;28;20028;-37
2023/12/24 03:56:09;;;;;;;1.67;1.50;;;;;;;9.06;100.00;100583.25;5117285;28;20049;-37
2023/12/24 03:58:35;;;;;;;2.80;1.80;;;;;;;9.06;100.00;100563.56;5117217;28;20479;-37
2023/12/24 04:01:00;;;;;;;2.05;1.50;;;;;;;9.01;100.00;100559.66;5117435;28;20067;-37
2023/12/24 04:03:25;;;;;;;2.40;1.70;;;;;;;9.11;100.00;100571.78;5117014;28;20028;-35
2023/12/24 04:05:51;;;;;;;2.07;1.63;;;;;;;9.10;100.00;100564.75;5117621;28;20110;-36
2023/12/24 04:08:16;;;;;;;2.80;1.60;;;;;;;9.11;100.00;100561.81;5117852;28;20027;-37
2023/12/24 04:10:42;;;;;;;2.03;1.70;;;;;;;9.03;100.00;100554.06;5117006;28;20024;-37
2023/12/24 04:13:08;;;;;;;2.92;1.42;;;;;;;8.99;100.00;100545.59;5116674;28;20042;-35
2023/12/24 04:15:33;;;;;;;1.77;1.45;;;;;;;9.14;100.00;100568.66;5116481;28;20084;-37
2023/12/24 04:18:00;;;;;;;2.10;1.52;;;;;;;9.14;100.00;100555.97;5116828;28;20020;-36
2023/12/24 04:20:25;;;;;;;2.42;1.35;;;;;;;9.14;100.00;100553.28;5117046;28;20027;-35
2023/12/24 04:22:51;;;;;;;1.67;1.57;;;;;;;9.16;100.00;100553.03;5116442;28;20455;-35
2023/12/24 04:25:16;;;;;;;2.00;1.57;;;;;;;9.15;100.00;100549.53;5116649;28;20293;-35
2023/12/24 04:27:41;;;;;;;1.90;1.40;;;;;;;9.15;100.00;100546.84;5116609;28;20023;-35
2023/12/24 04:30:07;;;;;;;1.90;1.30;;;;;;;9.16;100.00;100548.47;5117111;28;20273;-36
2023/12/24 04:32:33;;;;;;;1.58;1.40;;;;;;;9.17;100.00;100546.59;5116543;28;20372;-35
2023/12/24 04:34:58;;;;;;;1.50;1.40;;;;;;;9.18;100.00;100556.34;5116142;28;20447;-35
2023/12/24 04:37:23;;;;;;;2.10;1.60;;;;;;;9.19;100.00;100556.13;5116539;28;20032;-36
2023/12/24 04:39:49;;;;;;;1.23;1.10;;;;;;;9.05;100.00;100513.38;5116713;28;20148;-35
2023/12/24 04:42:14;;;;;;;1.50;1.40;;;;;;;9.20;100.00;100533.47;5116926;28;20028;-35
2023/12/24 04:44:39;;;;;;;1.30;1.20;;;;;;;9.22;100.00;100536.78;5116368;28;20023;-35
2023/12/24 04:47:08;;;;;;;1.20;1.10;;;;;;;9.22;100.00;100550.28;5116791;28;20383;-35
2023/12/24 04:49:34;;;;;;;2.22;1.15;;;;;;;9.16;100.00;100545.78;5116228;28;20133;-35
2023/12/24 04:51:59;;;;;;;1.30;1.20;;;;;;;9.23;100.00;100551.09;5115897;28;20051;-35
2023/12/24 04:54:28;;;;;;;1.27;1.08;;;;;;;9.24;100.00;100552.75;5116802;28;20110;-36
2023/12/24 04:56:53;;;;;;;1.10;1.00;;;;;;;9.24;100.00;100541.94;5116753;28;20135;-36
2023/12/24 04:59:18;;;;;;;1.40;1.20;;;;;;;9.25;100.00;100543.59;5116014;28;20106;-36
2023/12/24 05:01:44;;;;;;;1.40;1.10;;;;;;;9.23;100.00;100541.13;5115686;28;20023;-36
2023/12/24 05:04:09;;;;;;;1.77;1.10;;;;;;;9.25;100.00;100541.72;5115899;28;20027;-36
2023/12/24 05:06:35;;;;;;;1.20;1.10;;;;;;;9.27;100.00;100536.06;5115855;28;20032;-36
2023/12/24 05:09:00;;;;;;;1.52;1.20;;;;;;;9.24;100.00;100531.16;5115831;27;20731;-36
2023/12/24 05:11:26;;;;;;;0.93;0.90;;;;;;;9.26;100.00;100531.72;5116129;28;20028;-36
2023/12/24 05:13:51;;;;;;;1.90;1.40;;;;;;;9.19;100.00;100518.34;5115706;28;20372;-36
2023/12/24 05:16:16;;;;;;;1.20;1.10;;;;;;;9.29;100.00;100533.97;5115664;28;20028;-36
2023/12/24 05:18:42;;;;;;;1.33;1.10;;;;;;;9.30;100.00;100530.22;5116475;28;20265;-36
2023/12/24 05:21:07;;;;;;;1.20;1.10;;;;;;;9.24;100.00;100526.56;5115972;28;20023;-37
2023/12/24 05:23:32;;;;;;;1.10;1.00;;;;;;;9.28;100.00;100525.06;5115554;28;20261;-36
2023/12/24 05:25:58;;;;;;;1.10;1.00;;;;;;;9.31;100.00;100525.66;5116318;28;20027;-36
2023/12/24 05:28:23;;;;;;;1.48;1.10;;;;;;;9.32;100.00;100532.69;5115486;28;20031;-36
2023/12/24 05:30:49;;;;;;;1.30;1.20;;;;;;;9.33;100.00;100526.25;5115464;28;20038;-36
2023/12/24 05:33:14;;;;;;;1.23;1.13;;;;;;;9.33;100.00;100524.38;5116150;28;20277;-36
2023/12/24 05:35:40;;;;;;;1.07;0.97;;;;;;;9.32;100.00;100520.03;5116099;28;20026;-36
2023/12/24 05:38:05;;;;;;;2.53;1.13;;;;;;;9.26;100.00;100502.06;5115455;28;20349;-36
2023/12/24 05:40:31;;;;;;;1.30;1.20;;;;;;;9.29;100.00;100507.81;5115803;28;20475;-36
2023/12/24 05:42:56;;;;;;;1.30;1.20;;;;;;;9.37;100.00;100517.47;5115194;28;20030;-36
2023/12/24 05:45:21;;;;;;;1.40;1.30;;;;;;;9.34;100.00;100512.53;5115138;28;20055;-36
2023/12/24 05:47:47;;;;;;;2.17;1.97;;;;;;;9.39;100.00;100519.94;5115427;28;20636;-36
2023/12/24 05:50:12;;;;;;;2.00;1.90;;;;;;;9.40;100.00;100524.28;5115244;28;20030;-37
2023/12/24 05:52:39;;;;;;;2.05;1.95;;;;;;;9.39;100.00;100519.94;5115621;28;20060;-36
2023/12/24 05:55:06;;;;;;;1.90;1.80;;;;;;;9.40;100.00;100513.47;5114477;28;20027;-36
2023/12/24 05:57:31;;;;;;;1.75;1.65;;;;;;;9.36;100.00;100499.63;5116297;28;20119;-36
2023/12/24 05:59:56;;;;;;;4.30;2.00;;;;;;;9.43;100.00;100499.53;5114867;28;20118;-36
2023/12/24 06:02:22;;;;;;;1.73;1.63;;;;;;;9.45;100.00;100511.72;5114809;28;20742;-37
2023/12/24 06:04:47;;;;;;;1.80;1.70;;;;;;;9.46;100.00;100513.34;5113987;27;20072;-36
2023/12/24 06:07:12;;;;;;;2.00;1.80;;;;;;;9.45;100.00;100509.03;5115280;28;20098;-36
2023/12/24 06:09:38;;;;;;;1.80;1.70;;;;;;;9.36;100.00;100494.22;5114677;28;20482;-36
2023/12/24 06:12:04;;;;;;;1.90;1.80;;;;;;;9.49;100.00;100515.59;5115242;28;20165;-36
2023/12/24 06:14:30;;;;;;;1.85;1.75;;;;;;;9.48;100.00;100508.56;5114554;28;20035;-36
2023/12/24 06:16:55;;;;;;;2.00;1.80;;;;;;;9.41;100.00;100499.75;5114733;28;20028;-36
2023/12/24 06:19:20;;;;;;;1.98;1.80;;;;;;;9.38;100.00;100486.72;5114263;28;20026;-36
2023/12/24 06:21:46;;;;;;;1.77;1.67;;;;;;;9.51;100.00;100510.78;5114490;28;20467;-36
2023/12/24 06:24:11;;;;;;;1.83;1.73;;;;;;;9.45;100.00;100492.84;5114695;28;20531;-36
2023/12/24 06:26:36;;;;;;;1.70;1.60;;;;;;;9.52;100.00;100506.25;5114425;28;20463;-36
2023/12/24 06:29:02;;;;;;;1.90;1.80;;;;;;;9.52;100.00;100501.66;5114138;28;20024;-36
2023/12/24 06:31:28;;;;;;;1.60;1.50;;;;;;;9.52;100.00;100501.66;5114020;28;20253;-36
2023/12/24 06:33:53;;;;;;;3.10;2.65;;;;;;;9.47;100.00;100482.66;5114449;28;20039;-36
2023/12/24 06:36:18;;;;;;;2.30;2.10;;;;;;;9.55;100.00;100490.38;5114555;28;20027;-36
2023/12/24 06:38:44;;;;;;;3.33;2.37;;;;;;;9.49;100.00;100490.50;5114186;28;20035;-36
2023/12/24 06:41:10;;;;;;;2.92;2.55;;;;;;;9.55;100.00;100484.97;5114840;28;20467;-36
2023/12/24 06:43:38;;;;;;;4.83;2.93;;;;;;;9.54;100.00;100486.03;5114357;28;20027;-36
2023/12/24 06:46:06;;;;;;;7.60;4.70;;;;;;;9.50;100.00;100484.03;5114369;28;20028;-36
2023/12/24 06:48:32;;;;;;;7.47;4.95;;;;;;;9.59;100.00;100487.22;5114012;28;20414;-36
2023/12/24 06:50:57;;;;;;;;;;;;;;;9.62;100.00;100493.00;5114783;28;20391;-36
2023/12/24 06:53:23;;;;;;;3.38;2.92;;;;;;;9.60;100.00;100489.69;5114020;28;19919;-36
2023/12/24 06:55:48;;;;;;;3.95;3.53;;;;;;;9.55;100.00;100476.88;5114504;28;20059;-36
2023/12/24 06:58:13;;;;;;;2.40;2.20;;;;;;;9.50;100.00;100465.16;5113987;28;20039;-37
2023/12/24 07:00:39;;;;;;;2.37;2.17;;;;;;;9.56;100.00;100475.00;5114260;28;20024;-36
2023/12/24 07:03:04;;;;;;;2.67;2.47;;;;;;;9.62;100.00;100479.50;5114050;28;20468;-36
2023/12/24 07:05:34;;;;;;;2.50;2.30;;;;;;;9.66;100.00;100496.88;5113600;28;20035;-36
2023/12/24 07:07:59;;;;;;;2.15;1.95;;;;;;;9.57;100.00;100481.25;5113842;28;20053;-36
2023/12/24 07:10:25;;;;;;;2.10;2.00;;;;;;;9.67;100.00;100493.09;5113878;28;20027;-36
2023/12/24 07:12:51;;;;;;;2.30;2.10;;;;;;;9.69;100.00;100490.97;5114195;28;20034;-36
2023/12/24 07:15:16;;;;;;;2.80;2.60;;;;;;;9.70;100.00;100502.59;5113723;28;20026;-36
2023/12/24 07:17:42;;;;;;;4.90;4.40;;;;;;;9.72;100.00;100497.81;5116197;28;20031;-36
2023/12/24 07:20:08;;;;;;;3.70;3.40;;;;;;;9.75;100.00;100494.63;5118514;28;20102;-36
2023/12/24 07:22:33;;;;;;;3.75;3.45;;;;;;;9.74;100.00;100496.50;5118192;28;20020;-36
2023/12/24 07:24:58;;;;;;;5.50;4.90;;;;;;;9.75;100.00;100489.22;5117517;28;20114;-37
2023/12/24 07:27:24;;;;;;;3.80;3.50;;;;;;;9.68;100.00;100480.44;5117797;28;20126;-36
2023/12/24 07:29:49;;;;;;;3.17;2.95;;;;;;;9.75;100.00;100500.03;5117721;28;20051;-36
2023/12/24 07:32:15;;;;;;;3.30;3.00;;;;;;;9.62;100.00;100468.69;5117997;28;20024;-36
2023/12/24 07:34:40;;;;;;;3.27;3.00;;;;;;;9.76;100.00;100497.13;5117653;27;20265;-36
2023/12/24 07:37:05;;;;;;;3.90;3.60;;;;;;;9.77;100.00;100487.94;5118389;28;20277;-36
2023/12/24 07:39:31;;;;;;;3.30;3.00;;;;;;;9.77;100.00;100487.94;5117548;28;20047;-36
2023/12/24 07:41:56;;;;;;;3.47;3.17;;;;;;;9.78;100.00;100488.78;5117547;28;20062;-36
2023/12/24 07:44:21;;;;;;;3.37;3.13;;;;;;;9.77;100.00;100498.75;5118057;28;20028;-36
2023/12/24 07:46:47;;;;;;;2.93;2.73;;;;;;;9.80;100.00;100502.84;5117398;28;20071;-36
2023/12/24 07:49:12;;;;;;;2.80;2.60;;;;;;;9.74;100.00;100493.81;5117384;28;20066;-36
2023/12/24 07:51:37;;;;;;;3.20;3.00;;;;;;;9.80;100.00;100494.75;5117424;28;20020;-36
2023/12/24 07:54:03;;;;;;;3.15;2.83;;;;;;;9.76;100.00;100480.91;5117299;28;20031;-36
2023/12/24 07:56:29;;;;;;;3.08;2.85;;;;;;;9.82;100.00;100489.94;5117595;28;20633;-36
2023/12/24 07:58:55;;;;;;;3.10;2.80;;;;;;;9.83;100.00;100482.66;5117146;28;20057;-37
2023/12/24 08:01:20;;;;;;;3.30;3.00;;;;;;;9.81;100.00;100477.50;5116857;28;20019;-36
2023/12/24 08:03:46;;;;;;;3.30;3.05;;;;;;;9.75;100.00;100462.22;5117369;28;20059;-36
2023/12/24 08:06:11;;;;;;;2.87;2.67;;;;;;;9.85;100.00;100478.66;5117082;28;20488;-36
2023/12/24 08:08:38;;;;;;;2.77;2.50;;;;;;;9.85;100.00;100478.66;5116966;28;20269;-36
2023/12/24 08:11:03;;;;;;;2.92;2.58;;;;;;;9.85;100.00;100481.34;5117806;28;20027;-36
2023/12/24 08:13:29;;;;;;;3.23;2.93;;;;;;;9.78;100.00;100477.97;5116843;28;20114;-36
2023/12/24 08:15:54;;;;;;;3.20;2.90;;;;;;;9.84;100.00;100481.59;5117022;28;20277;-36
2023/12/24 08:18:19;;;;;;;2.80;2.53;;;;;;;9.81;100.00;100477.50;5116589;28;20539;-37
2023/12/24 08:20:44;;;;;;;3.00;2.80;;;;;;;9.87;100.00;100476.56;5117393;28;20414;-36
2023/12/24 08:23:10;;;;;;;3.00;2.80;;;;;;;9.87;100.00;100484.66;5117022;28;20380;-36
2023/12/24 08:25:36;;;;;;;2.67;2.47;;;;;;;9.87;100.00;100481.16;5117272;28;20267;-37
2023/12/24 08:28:02;;;;;;;1.98;1.70;;;;;;;9.89;100.00;100476.31;5116920;28;20383;-37
2023/12/24 08:30:28;;;;;;;;;;;;;;;9.91;100.00;100479.63;5117029;28;20035;-36
2023/12/24 08:32:53;;;;;;;1.80;1.65;;;;;;;9.90;100.00;100476.06;5116783;28;19912;-36
2023/12/24 08:35:19;;;;;;;1.80;1.70;;;;;;;9.82;100.00;100456.72;5116629;28;20026;-37
2023/12/24 08:37:44;;;;;;;1.50;1.40;;;;;;;9.88;100.00;100472.81;5116035;28;20031;-36
2023/12/24 08:40:11;;;;;;;1.80;1.70;;;;;;;9.89;100.00;100479.84;5116377;28;20024;-36
2023/12/24 08:42:36;;;;;;;1.63;1.52;;;;;;;9.89;100.00;100474.44;5116107;28;20093;-37
2023/12/24 08:45:01;;;;;;;1.77;1.67;;;;;;;9.91;100.00;100471.53;5116046;28;20464;-36
2023/12/24 08:47:27;;;;;;;1.60;1.50;;;;;;;9.91;100.00;100466.94;5116315;28;20076;-36
2023/12/24 08:49:52;;;;;;;1.87;1.77;;;;;;;9.90;100.00;100467.97;5116757;28;20080;-36
2023/12/24 08:52:18;;;;;;;1.63;1.53;;;;;;;9.93;100.00;100469.38;5117011;28;20261;-36
2023/12/24 08:54:43;;;;;;;2.00;1.80;;;;;;;9.90;100.00;100464.44;5116414;28;20042;-36
2023/12/24 08:57:08;;;;;;;2.07;1.90;;;;;;;9.94;100.00;100473.72;5116706;28;20626;-37
2023/12/24 08:59:34;;;;;;;2.17;1.87;;;;;;;9.96;100.00;100475.16;5115996;28;20280;-36
2023/12/24 09:01:59;;;;;;;3.10;2.00;;;;;;;9.97;100.00;100471.38;5115748;28;20028;-36
2023/12/24 09:04:24;;;;;;;1.60;1.50;;;;;;;9.98;100.00;100494.63;5116002;28;20361;-36
2023/12/24 09:06:50;;;;;;;1.90;1.70;;;;;;;9.87;100.00;100465.75;5115974;28;20034;-37
2023/12/24 09:09:15;;;;;;;1.93;1.80;;;;;;;10.01;100.00;100496.88;5115535;27;20051;-36
2023/12/24 09:11:40;;;;;;;1.80;1.70;;;;;;;10.01;100.00;100491.47;5115544;28;20264;-36
2023/12/24 09:14:06;;;;;;;1.90;1.80;;;;;;;10.04;100.00;100492.88;5115752;28;20107;-36
2023/12/24 09:16:32;;;;;;;1.85;1.75;;;;;;;10.03;100.00;100497.44;5116238;27;20028;-36
2023/12/24 09:18:57;;;;;;;2.28;2.08;;;;;;;10.06;100.00;100490.78;5115925;28;20081;-36
2023/12/24 09:21:23;;;;;;;2.90;1.90;;;;;;;10.04;100.00;100482.06;5116202;28;20024;-37
2023/12/24 09:23:48;;;;;;;1.63;1.53;;;;;;;10.08;100.00;100488.63;5115903;28;20262;-36
2023/12/24 09:26:13;;;;;;;1.70;1.60;;;;;;;10.08;100.00;100472.44;5116131;28;20028;-36
2023/12/24 09:28:39;;;;;;;1.63;1.53;;;;;;;10.10;100.00;100474.88;5115464;28;20028;-36
2023/12/24 09:31:04;;;;;;;1.70;1.60;;;;;;;10.05;100.00;100457.53;5116339;28;20270;-36
2023/12/24 09:33:29;;;;;;;1.60;1.50;;;;;;;10.12;100.00;100464.69;5115287;28;20034;-37
2023/12/24 09:35:55;;;;;;;2.60;1.50;;;;;;;10.14;100.00;100462.56;5115221;28;20027;-36
2023/12/24 09:38:20;;;;;;;1.70;1.60;;;;;;;10.13;100.00;100458.22;5116112;28;20265;-37
2023/12/24 09:40:46;;;;;;;1.70;1.60;;;;;;;10.15;100.00;100466.88;5114115;28;20028;-36
2023/12/24 09:43:11;;;;;;;1.95;1.80;;;;;;;10.16;100.00;100466.69;5115108;28;20028;-36
2023/12/24 09:45:37;;;;;;;1.85;1.75;;;;;;;10.18;100.00;100477.22;5116283;28;20035;-36
2023/12/24 09:48:03;;;;;;;1.80;1.70;;;;;;;10.17;100.00;100476.41;5114746;27;20038;-36
2023/12/24 09:50:28;;;;;;;2.72;1.95;;;;;;;10.11;100.00;100457.63;5115066;28;20065;-36
2023/12/24 09:52:54;;;;;;;2.37;1.90;;;;;;;10.13;100.00;100460.91;5115290;28;20102;-36
2023/12/24 09:55:19;;;;;;;2.80;1.83;;;;;;;10.21;100.00;100468.66;5114872;28;20024;-36
2023/12/24 09:57:45;;;;;;;3.08;2.47;;;;;;;10.23;100.00;100461.13;5115210;27;20027;-37
2023/12/24 10:00:12;;;;;;;2.40;2.20;;;;;;;10.24;100.00;100462.78;5113603;28;20059;-37
2023/12/24 10:02:37;;;;;;;3.40;3.10;;;;;;;10.22;100.00;100471.13;5114802;28;20027;-36
2023/12/24 10:05:03;;;;;;;4.35;3.47;;;;;;;10.25;100.00;100467.97;5114429;28;20023;-37
2023/12/24 10:07:39;;;;;;;5.38;4.13;;;;;;;10.24;100.00;100471.72;5114092;28;20065;-36
2023/12/24 10:10:07;;;;;;;6.00;5.10;;;;;;;10.34;100.00;100473.00;5114383;28;20027;-36
2023/12/24 10:12:33;;;;;;;8.73;6.47;;;;;;;10.34;100.00;100460.31;5115166;28;20054;-37
2023/12/24 10:14:58;;;;;;;14.35;9.45;;;;;;;10.38;100.00;100476.88;5114263;28;20478;-37
2023/12/24 10:17:34;;;;;;;11.68;8.45;;;;;;;10.41;100.00;100473.72;5114441;28;20046;-36
2023/12/24 10:20:03;;;;;;;14.73;9.98;;;;;;;10.45;100.00;100477.59;5114439;28;20024;-37
2023/12/24 10:22:29;;;;;;;14.30;9.32;;;;;;;10.49;100.00;100474.16;5114614;28;20047;-37
2023/12/24 10:25:06;;;;;;;13.80;9.83;;;;;;;10.52;100.00;100460.16;5115029;28;20062;-36
2023/12/24 10:27:32;;;;;;;18.20;10.38;;;;;;;10.53;100.00;100464.47;5114304;28;20468;-36
2023/12/24 10:30:07;;;;;;;15.13;9.88;;;;;;;10.55;100.00;100451.56;5114568;28;20030;-36
2023/12/24 10:32:33;;;;;;;13.35;10.30;;;;;;;10.58;100.00;100451.06;5113259;28;20038;-36
2023/12/24 10:34:58;;;;;;;15.43;10.33;;;;;;;10.62;100.00;100456.81;5114010;28;20023;-37
2023/12/24 10:37:29;;;;;;;18.87;10.83;;;;;;;10.66;100.00;100451.75;5114160;28;20288;-37
2023/12/24 10:40:08;;;;;;;16.75;10.90;;;;;;;10.68;100.00;100433.41;5114322;28;20105;-36
2023/12/24 10:42:34;;;;;;;17.95;12.55;;;;;;;10.72;100.00;100431.88;5113765;28;20115;-36
2023/12/24 10:45:00;;;;;;;14.40;12.32;;;;;;;10.65;100.00;100418.50;5113767;28;20073;-36
2023/12/24 10:47:25;;;;;;;17.23;13.30;;;;;;;10.65;100.00;100418.50;5114088;28;20070;-37
2023/12/24 10:49:52;;;;;;;15.23;12.50;;;;;;;10.82;100.00;100432.03;5113727;28;20024;-36
2023/12/24 10:52:17;;;;;;;20.13;13.85;;;;;;;10.80;100.00;100428.78;5114629;28;20253;-37
2023/12/24 10:54:44;;;;;;;22.88;14.65;;;;;;;10.84;100.00;100429.94;5113906;28;20024;-36
2023/12/24 10:57:12;;;;;;;18.08;14.38;;;;;;;10.77;100.00;100411.13;5114414;28;20104;-37
2023/12/24 11:00:04;;;;;;;16.95;14.38;;;;;;;10.86;100.00;100419.69;5113903;28;20057;-37
2023/12/24 11:02:31;;;;;;;20.50;14.20;;;;;;;10.87;100.00;100415.09;5114571;28;20076;-36
2023/12/24 11:04:57;;;;;;;14.57;11.88;;;;;;;10.82;100.00;100405.00;5114165;28;20475;-36
2023/12/24 11:07:34;;;;;;;16.40;12.77;;;;;;;10.92;100.00;100401.66;5114240;28;20052;-37
2023/12/24 11:10:01;;;;;;;13.10;11.68;;;;;;;10.83;100.00;100395.81;5113830;28;20043;-37
2023/12/24 11:12:31;;;;;;;11.68;9.02;;;;;;;10.94;100.00;100413.88;5113872;28;20066;-36
2023/12/24 11:14:57;;;;;;;11.15;7.75;;;;;;;10.93;100.00;100404.13;5113772;28;20026;-37
2023/12/24 11:17:38;;;;;;;8.73;7.22;;;;;;;10.94;100.00;100413.06;5113468;28;20085;-36